813  
SHUS65 KGJT 252013  
FWOGJT  
 
DAILY FIRE WEATHER OBSERVATION  
NATIONAL WEATHER SERVICE GRAND JUNCTION CO  
212 PM MDT SAT MAR 25 2017  
 
STATE OF THE WEATHER (W) 3  
DRY BULB TEMPERATURE 64 DEGREES FAHRENHEIT  
RELATIVE HUMIDITY (RH) 20 PERCENT  
LIGHTNING ACTIVITY LEVEL  
(LAL - MIDNIGHT TO 2 PM) 1  
WIND DIRECTION 180 DEGREES (C IF CALM)  
WIND SPEED 9 MPH  
MAX TEMP (2 PM - 2 PM) 64 DEGREES FAHRENHEIT  
MIN TEMP (2 PM - 2 PM) 37 DEGREES FAHRENHEIT  
MAX RH (2 PM - 2 PM) 67 PERCENT  
MIN RH (2 PM - 2 PM) 20 PERCENT  
PCPN DURATION 0.0 HOURS  
PCPN AMT (2 PM - 2 PM) 0.0 INCHES  
LAL (2 PM - 2 PM) 1  
 

 
 
METAR KGJT 251953Z 17008KT 130V200 10SM CLR 18/M06 A2988 RMK AO2  
SLP080 T01781056  
 
CLICK HERE TO GO TO PREVIOUS BULLETINS.

The Nexlab CO Page
The Nexlab UT Page Main Text Page